sensor_id;sensor_type;location;lat;lon;timestamp;pressure;altitude;pressure_sealevel;temperature;humidity
17936;BME280;9093;52.062;4.508;2023-02-12T00:00:06;104178.88;;;9.15;73.03
17936;BME280;9093;52.062;4.508;2023-02-12T00:02:47;104178.88;;;9.15;73.20
17936;BME280;9093;52.062;4.508;2023-02-12T00:05:28;104189.53;;;9.15;73.23
17936;BME280;9093;52.062;4.508;2023-02-12T00:08:08;104182.41;;;9.14;73.21
17936;BME280;9093;52.062;4.508;2023-02-12T00:10:51;104174.41;;;9.12;73.12
17936;BME280;9093;52.062;4.508;2023-02-12T00:13:31;104177.06;;;9.12;73.28
17936;BME280;9093;52.062;4.508;2023-02-12T00:16:17;104180.63;;;9.11;73.44
17936;BME280;9093;52.062;4.508;2023-02-12T00:18:59;104185.06;;;9.11;73.25
17936;BME280;9093;52.062;4.508;2023-02-12T00:21:40;104178.84;;;9.09;73.21
17936;BME280;9093;52.062;4.508;2023-02-12T00:24:20;104178.84;;;9.09;73.46
17936;BME280;9093;52.062;4.508;2023-02-12T00:27:01;104184.19;;;9.09;73.06
17936;BME280;9093;52.062;4.508;2023-02-12T00:29:42;104180.59;;;9.07;73.36
17936;BME280;9093;52.062;4.508;2023-02-12T00:32:22;104184.16;;;9.06;73.42
17936;BME280;9093;52.062;4.508;2023-02-12T00:35:02;104185.03;;;9.05;73.21
17936;BME280;9093;52.062;4.508;2023-02-12T00:37:43;104183.25;;;9.05;73.49
17936;BME280;9093;52.062;4.508;2023-02-12T00:40:23;104175.28;;;9.04;73.53
17936;BME280;9093;52.062;4.508;2023-02-12T00:43:04;104178.81;;;9.03;73.47
17936;BME280;9093;52.062;4.508;2023-02-12T00:45:45;104184.16;;;9.03;73.46
17936;BME280;9093;52.062;4.508;2023-02-12T00:48:26;104176.13;;;9.01;73.67
17936;BME280;9093;52.062;4.508;2023-02-12T00:51:06;104170.81;;;9.01;73.49
17936;BME280;9093;52.062;4.508;2023-02-12T00:53:47;104173.44;;;9.00;73.53
17936;BME280;9093;52.062;4.508;2023-02-12T00:56:27;104183.22;;;8.99;73.44
17936;BME280;9093;52.062;4.508;2023-02-12T00:59:07;104169.91;;;8.98;73.58
17936;BME280;9093;52.062;4.508;2023-02-12T01:01:48;104169.91;;;8.98;73.36
17936;BME280;9093;52.062;4.508;2023-02-12T01:04:29;104177.00;;;8.99;73.30
17936;BME280;9093;52.062;4.508;2023-02-12T01:07:09;104173.44;;;8.97;73.53
17936;BME280;9093;52.062;4.508;2023-02-12T01:09:49;104174.31;;;8.96;73.53
17936;BME280;9093;52.062;4.508;2023-02-12T01:12:30;104173.44;;;8.95;73.56
17936;BME280;9093;52.062;4.508;2023-02-12T01:15:10;104173.44;;;8.95;73.52
17936;BME280;9093;52.062;4.508;2023-02-12T01:17:51;104175.19;;;8.95;73.50
17936;BME280;9093;52.062;4.508;2023-02-12T01:20:32;104174.28;;;8.93;73.76
17936;BME280;9093;52.062;4.508;2023-02-12T01:23:12;104173.41;;;8.92;73.40
17936;BME280;9093;52.062;4.508;2023-02-12T01:25:52;104168.97;;;8.93;73.65
17936;BME280;9093;52.062;4.508;2023-02-12T01:28:33;104169.84;;;8.92;73.46
17936;BME280;9093;52.062;4.508;2023-02-12T01:31:19;104170.75;;;8.91;73.67
17936;BME280;9093;52.062;4.508;2023-02-12T01:33:59;104160.06;;;8.89;73.71
17936;BME280;9093;52.062;4.508;2023-02-12T01:36:40;104171.63;;;8.90;73.60
17936;BME280;9093;52.062;4.508;2023-02-12T01:39:20;104168.94;;;8.88;73.69
17936;BME280;9093;52.062;4.508;2023-02-12T01:42:02;104168.03;;;8.87;73.66
17936;BME280;9093;52.062;4.508;2023-02-12T01:47:51;104165.38;;;8.87;73.79
17936;BME280;9093;52.062;4.508;2023-02-12T01:50:31;104176.91;;;8.86;73.43
17936;BME280;9093;52.062;4.508;2023-02-12T01:53:12;104174.25;;;8.86;73.58
17936;BME280;9093;52.062;4.508;2023-02-12T01:56:00;104173.38;;;8.87;73.55
17936;BME280;9093;52.062;4.508;2023-02-12T01:58:42;104176.03;;;8.87;73.96
17936;BME280;9093;52.062;4.508;2023-02-12T02:01:27;104178.72;;;8.87;73.60
17936;BME280;9093;52.062;4.508;2023-02-12T02:04:11;104175.16;;;8.87;73.74
17936;BME280;9093;52.062;4.508;2023-02-12T02:07:02;104174.25;;;8.86;73.82
17936;BME280;9093;52.062;4.508;2023-02-12T02:09:44;104169.81;;;8.87;73.81
17936;BME280;9093;52.062;4.508;2023-02-12T02:12:25;104174.25;;;8.86;73.62
17936;BME280;9093;52.062;4.508;2023-02-12T02:15:26;104178.72;;;8.87;73.59
17936;BME280;9093;52.062;4.508;2023-02-12T02:18:19;104177.81;;;8.87;74.00
17936;BME280;9093;52.062;4.508;2023-02-12T02:21:19;104178.72;;;8.84;73.49
17936;BME280;9093;52.062;4.508;2023-02-12T02:27:39;104179.56;;;8.82;73.65
17936;BME280;9093;52.062;4.508;2023-02-12T02:33:18;104182.22;;;8.80;73.68
17936;BME280;9093;52.062;4.508;2023-02-12T02:36:13;104176.88;;;8.79;73.58
17936;BME280;9093;52.062;4.508;2023-02-12T02:39:14;104181.31;;;8.77;73.96
17936;BME280;9093;52.062;4.508;2023-02-12T02:42:34;104177.72;;;8.75;73.88
17936;BME280;9093;52.062;4.508;2023-02-12T02:48:12;104168.88;;;8.79;73.97
17936;BME280;9093;52.062;4.508;2023-02-12T02:50:58;104172.44;;;8.79;73.89
17936;BME280;9093;52.062;4.508;2023-02-12T02:54:08;104165.31;;;8.77;73.67
17936;BME280;9093;52.062;4.508;2023-02-12T02:56:55;104169.75;;;8.79;73.89
17936;BME280;9093;52.062;4.508;2023-02-12T02:59:43;104168.00;;;8.78;73.59
17936;BME280;9093;52.062;4.508;2023-02-12T03:02:30;104166.22;;;8.77;73.81
17936;BME280;9093;52.062;4.508;2023-02-12T03:05:25;104162.63;;;8.75;73.85
17936;BME280;9093;52.062;4.508;2023-02-12T03:08:12;104161.78;;;8.76;73.68
17936;BME280;9093;52.062;4.508;2023-02-12T03:11:04;104159.09;;;8.76;73.96
17936;BME280;9093;52.062;4.508;2023-02-12T03:13:50;104160.91;;;8.77;73.88
17936;BME280;9093;52.062;4.508;2023-02-12T03:16:40;104150.22;;;8.77;73.81
17936;BME280;9093;52.062;4.508;2023-02-12T03:19:25;104160.91;;;8.77;73.75
17936;BME280;9093;52.062;4.508;2023-02-12T03:22:14;104159.09;;;8.79;73.79
17936;BME280;9093;52.062;4.508;2023-02-12T03:25:13;104158.19;;;8.74;73.91
17936;BME280;9093;52.062;4.508;2023-02-12T03:28:04;104153.78;;;8.76;73.75
17936;BME280;9093;52.062;4.508;2023-02-12T03:31:13;104155.53;;;8.74;73.56
17936;BME280;9093;52.062;4.508;2023-02-12T03:34:10;104148.44;;;8.76;73.73
17936;BME280;9093;52.062;4.508;2023-02-12T03:37:02;104152.91;;;8.77;73.66
17936;BME280;9093;52.062;4.508;2023-02-12T03:45:33;104157.31;;;8.75;73.63
17936;BME280;9093;52.062;4.508;2023-02-12T03:48:34;104159.06;;;8.73;73.73
17936;BME280;9093;52.062;4.508;2023-02-12T03:51:27;104157.31;;;8.75;73.84
17936;BME280;9093;52.062;4.508;2023-02-12T03:54:12;104153.78;;;8.76;73.55
17936;BME280;9093;52.062;4.508;2023-02-12T03:57:04;104159.13;;;8.81;73.29
17936;BME280;9093;52.062;4.508;2023-02-12T03:59:47;104158.28;;;8.85;73.20
17936;BME280;9093;52.062;4.508;2023-02-12T04:02:27;104159.19;;;8.88;73.12
17936;BME280;9093;52.062;4.508;2023-02-12T04:05:17;104168.09;;;8.91;73.36
17936;BME280;9093;52.062;4.508;2023-02-12T04:07:59;104167.16;;;8.92;72.98
17936;BME280;9093;52.062;4.508;2023-02-12T04:10:52;104166.28;;;8.93;73.14
17936;BME280;9093;52.062;4.508;2023-02-12T04:13:41;104161.00;;;8.96;73.07
17936;BME280;9093;52.062;4.508;2023-02-12T04:16:30;104173.44;;;8.97;72.94
17936;BME280;9093;52.062;4.508;2023-02-12T04:19:14;104174.31;;;8.96;72.96
17936;BME280;9093;52.062;4.508;2023-02-12T04:22:10;104182.28;;;8.93;72.99
17936;BME280;9093;52.062;4.508;2023-02-12T04:28:24;104184.94;;;8.90;73.18
17936;BME280;9093;52.062;4.508;2023-02-12T04:31:12;104184.06;;;8.91;73.24
17936;BME280;9093;52.062;4.508;2023-02-12T04:39:58;104197.38;;;8.89;72.95
17936;BME280;9093;52.062;4.508;2023-02-12T04:42:45;104205.34;;;8.87;73.11
17936;BME280;9093;52.062;4.508;2023-02-12T04:45:32;104197.34;;;8.86;73.03
17936;BME280;9093;52.062;4.508;2023-02-12T04:48:13;104203.56;;;8.86;72.97
17936;BME280;9093;52.062;4.508;2023-02-12T04:50:54;104204.47;;;8.84;73.03
17936;BME280;9093;52.062;4.508;2023-02-12T04:53:35;104200.00;;;8.83;73.05
17936;BME280;9093;52.062;4.508;2023-02-12T04:56:17;104207.13;;;8.84;73.16
17936;BME280;9093;52.062;4.508;2023-02-12T04:58:57;104204.44;;;8.82;73.11
17936;BME280;9093;52.062;4.508;2023-02-12T05:01:39;104212.44;;;8.82;73.06
17936;BME280;9093;52.062;4.508;2023-02-12T05:04:22;104210.66;;;8.81;72.99
17936;BME280;9093;52.062;4.508;2023-02-12T05:07:02;104194.66;;;8.81;72.86
17936;BME280;9093;52.062;4.508;2023-02-12T05:09:43;104196.44;;;8.81;73.09
17936;BME280;9093;52.062;4.508;2023-02-12T05:12:23;104200.00;;;8.81;72.88
17936;BME280;9093;52.062;4.508;2023-02-12T05:15:06;104193.75;;;8.81;73.12
17936;BME280;9093;52.062;4.508;2023-02-12T05:17:46;104195.53;;;8.80;73.01
17936;BME280;9093;52.062;4.508;2023-02-12T05:20:27;104191.06;;;8.79;73.12
17936;BME280;9093;52.062;4.508;2023-02-12T05:23:07;104190.19;;;8.79;72.99
17936;BME280;9093;52.062;4.508;2023-02-12T05:25:47;104195.50;;;8.79;73.12
17936;BME280;9093;52.062;4.508;2023-02-12T05:28:28;104190.19;;;8.77;73.21
17936;BME280;9093;52.062;4.508;2023-02-12T05:31:10;104198.19;;;8.77;73.15
17936;BME280;9093;52.062;4.508;2023-02-12T05:33:52;104203.53;;;8.77;73.11
17936;BME280;9093;52.062;4.508;2023-02-12T05:36:32;104207.06;;;8.76;72.98
17936;BME280;9093;52.062;4.508;2023-02-12T05:39:12;104198.16;;;8.74;73.03
17936;BME280;9093;52.062;4.508;2023-02-12T05:41:53;104192.81;;;8.74;73.13
17936;BME280;9093;52.062;4.508;2023-02-12T05:44:33;104195.50;;;8.74;73.21
17936;BME280;9093;52.062;4.508;2023-02-12T05:47:13;104204.38;;;8.75;73.07
17936;BME280;9093;52.062;4.508;2023-02-12T05:49:53;104202.63;;;8.75;73.00
17936;BME280;9093;52.062;4.508;2023-02-12T05:52:34;104205.28;;;8.75;72.81
17936;BME280;9093;52.062;4.508;2023-02-12T05:55:14;104206.16;;;8.74;72.79
17936;BME280;9093;52.062;4.508;2023-02-12T05:57:58;104204.38;;;8.75;72.94
17936;BME280;9093;52.062;4.508;2023-02-12T06:00:38;104203.50;;;8.74;72.93
17936;BME280;9093;52.062;4.508;2023-02-12T06:03:18;104198.16;;;8.74;72.67
17936;BME280;9093;52.062;4.508;2023-02-12T06:05:59;104206.16;;;8.74;72.92
17936;BME280;9093;52.062;4.508;2023-02-12T06:08:39;104211.47;;;8.74;72.84
17936;BME280;9093;52.062;4.508;2023-02-12T06:11:20;104215.03;;;8.75;72.82
17936;BME280;9093;52.062;4.508;2023-02-12T06:14:02;104204.38;;;8.75;72.66
17936;BME280;9093;52.062;4.508;2023-02-12T06:16:44;104204.38;;;8.73;72.87
17936;BME280;9093;52.062;4.508;2023-02-12T06:19:25;104202.59;;;8.72;72.80
17936;BME280;9093;52.062;4.508;2023-02-12T06:22:09;104207.03;;;8.72;72.84
17936;BME280;9093;52.062;4.508;2023-02-12T06:24:51;104208.81;;;8.71;72.88
17936;BME280;9093;52.062;4.508;2023-02-12T06:27:32;104201.69;;;8.70;72.76
17936;BME280;9093;52.062;4.508;2023-02-12T06:30:13;104201.69;;;8.70;72.87
17936;BME280;9093;52.062;4.508;2023-02-12T06:32:53;104199.91;;;8.69;73.09
17936;BME280;9093;52.062;4.508;2023-02-12T06:35:34;104197.25;;;8.69;72.74
17936;BME280;9093;52.062;4.508;2023-02-12T06:38:15;104205.22;;;8.68;72.79
17936;BME280;9093;52.062;4.508;2023-02-12T06:40:56;104209.66;;;8.69;73.01
17936;BME280;9093;52.062;4.508;2023-02-12T06:43:36;104205.19;;;8.66;73.12
17936;BME280;9093;52.062;4.508;2023-02-12T06:46:20;104198.09;;;8.65;72.88
17936;BME280;9093;52.062;4.508;2023-02-12T06:49:01;104210.53;;;8.66;72.94
17936;BME280;9093;52.062;4.508;2023-02-12T06:51:41;104207.88;;;8.65;73.04
17936;BME280;9093;52.062;4.508;2023-02-12T06:54:22;104209.66;;;8.66;72.77
17936;BME280;9093;52.062;4.508;2023-02-12T06:57:02;104207.84;;;8.66;72.86
17936;BME280;9093;52.062;4.508;2023-02-12T06:59:45;104216.75;;;8.67;73.02
17936;BME280;9093;52.062;4.508;2023-02-12T07:02:26;104214.97;;;8.64;72.97
17936;BME280;9093;52.062;4.508;2023-02-12T07:05:06;104215.84;;;8.63;72.77
17936;BME280;9093;52.062;4.508;2023-02-12T07:07:47;104220.31;;;8.66;73.13
17936;BME280;9093;52.062;4.508;2023-02-12T07:10:27;104222.97;;;8.64;73.04
17936;BME280;9093;52.062;4.508;2023-02-12T07:13:07;104234.50;;;8.65;72.93
17936;BME280;9093;52.062;4.508;2023-02-12T07:15:51;104226.50;;;8.63;72.94
17936;BME280;9093;52.062;4.508;2023-02-12T07:18:35;104238.94;;;8.64;73.02
17936;BME280;9093;52.062;4.508;2023-02-12T07:21:17;104230.06;;;8.65;72.98
17936;BME280;9093;52.062;4.508;2023-02-12T07:23:57;104235.38;;;8.62;73.04
17936;BME280;9093;52.062;4.508;2023-02-12T07:26:38;104249.59;;;8.64;73.01
17936;BME280;9093;52.062;4.508;2023-02-12T07:29:19;104249.59;;;8.64;72.97
17936;BME280;9093;52.062;4.508;2023-02-12T07:32:00;104253.16;;;8.65;73.19
17936;BME280;9093;52.062;4.508;2023-02-12T07:34:40;104253.16;;;8.65;73.19
17936;BME280;9093;52.062;4.508;2023-02-12T07:37:20;104253.16;;;8.66;73.01
17936;BME280;9093;52.062;4.508;2023-02-12T07:40:01;104254.94;;;8.67;73.01
17936;BME280;9093;52.062;4.508;2023-02-12T07:42:42;104254.94;;;8.67;73.30
17936;BME280;9093;52.062;4.508;2023-02-12T07:45:22;104259.41;;;8.70;73.00
17936;BME280;9093;52.062;4.508;2023-02-12T07:48:05;104260.31;;;8.70;73.20
17936;BME280;9093;52.062;4.508;2023-02-12T07:50:45;104262.09;;;8.71;72.92
17936;BME280;9093;52.062;4.508;2023-02-12T07:53:26;104260.31;;;8.73;72.97
17936;BME280;9093;52.062;4.508;2023-02-12T07:56:11;104260.34;;;8.76;72.97
17936;BME280;9093;52.062;4.508;2023-02-12T07:58:52;104263.03;;;8.78;72.98
17936;BME280;9093;52.062;4.508;2023-02-12T08:01:35;104262.16;;;8.80;73.05
17936;BME280;9093;52.062;4.508;2023-02-12T08:04:17;104259.53;;;8.83;73.01
17936;BME280;9093;52.062;4.508;2023-02-12T08:06:59;104267.53;;;8.86;73.05
17936;BME280;9093;52.062;4.508;2023-02-12T08:09:39;104267.56;;;8.90;73.00
17936;BME280;9093;52.062;4.508;2023-02-12T08:12:20;104266.69;;;8.94;72.81
17936;BME280;9093;52.062;4.508;2023-02-12T08:15:00;104262.28;;;8.96;73.03
17936;BME280;9093;52.062;4.508;2023-02-12T08:17:40;104269.41;;;9.00;72.63
17936;BME280;9093;52.062;4.508;2023-02-12T08:20:22;104264.13;;;9.03;72.97
17936;BME280;9093;52.062;4.508;2023-02-12T08:23:02;104262.34;;;9.06;72.85
17936;BME280;9093;52.062;4.508;2023-02-12T08:25:46;104272.16;;;9.09;72.76
17936;BME280;9093;52.062;4.508;2023-02-12T08:28:26;104273.94;;;9.13;72.71
17936;BME280;9093;52.062;4.508;2023-02-12T08:31:11;104278.41;;;9.15;72.98
17936;BME280;9093;52.062;4.508;2023-02-12T08:33:53;104275.78;;;9.20;72.74
17936;BME280;9093;52.062;4.508;2023-02-12T08:36:36;104276.66;;;9.23;72.76
17936;BME280;9093;52.062;4.508;2023-02-12T08:39:17;104278.47;;;9.26;72.52
17936;BME280;9093;52.062;4.508;2023-02-12T08:41:58;104275.84;;;9.29;72.67
17936;BME280;9093;52.062;4.508;2023-02-12T08:44:41;104287.44;;;9.34;72.71
17936;BME280;9093;52.062;4.508;2023-02-12T08:47:21;104274.13;;;9.36;72.49
17936;BME280;9093;52.062;4.508;2023-02-12T08:50:02;104288.38;;;9.41;72.65
17936;BME280;9093;52.062;4.508;2023-02-12T08:52:45;104283.91;;;9.44;72.72
17936;BME280;9093;52.062;4.508;2023-02-12T08:55:26;104284.84;;;9.48;72.66
17936;BME280;9093;52.062;4.508;2023-02-12T08:58:07;104284.88;;;9.52;72.65
17936;BME280;9093;52.062;4.508;2023-02-12T09:00:49;104286.66;;;9.56;72.60
17936;BME280;9093;52.062;4.508;2023-02-12T09:03:30;104297.34;;;9.59;72.57
17936;BME280;9093;52.062;4.508;2023-02-12T09:06:11;104296.47;;;9.63;72.40
17936;BME280;9093;52.062;4.508;2023-02-12T09:08:52;104294.72;;;9.65;72.29
17936;BME280;9093;52.062;4.508;2023-02-12T09:11:33;104298.28;;;9.71;72.42
17936;BME280;9093;52.062;4.508;2023-02-12T09:14:16;104296.53;;;9.73;72.08
17936;BME280;9093;52.062;4.508;2023-02-12T09:16:57;104300.09;;;9.78;72.32
17936;BME280;9093;52.062;4.508;2023-02-12T09:19:38;104304.53;;;9.80;72.01
17936;BME280;9093;52.062;4.508;2023-02-12T09:22:18;104308.13;;;9.84;71.98
17936;BME280;9093;52.062;4.508;2023-02-12T09:24:58;104303.72;;;9.86;71.75
17936;BME280;9093;52.062;4.508;2023-02-12T09:27:44;104319.75;;;9.92;71.96
17936;BME280;9093;52.062;4.508;2023-02-12T09:30:36;104307.31;;;9.92;71.81
17936;BME280;9093;52.062;4.508;2023-02-12T09:33:16;104316.19;;;9.96;71.61
17936;BME280;9093;52.062;4.508;2023-02-12T09:36:01;104301.97;;;9.97;71.54
17936;BME280;9093;52.062;4.508;2023-02-12T09:38:42;104309.97;;;10.01;71.73
17936;BME280;9093;52.062;4.508;2023-02-12T09:44:24;104309.06;;;9.99;72.10
17936;BME280;9093;52.062;4.508;2023-02-12T09:47:20;104310.91;;;10.05;71.64
17936;BME280;9093;52.062;4.508;2023-02-12T09:53:18;104303.78;;;10.10;71.49
17936;BME280;9093;52.062;4.508;2023-02-12T09:56:00;104300.22;;;10.13;71.46
17936;BME280;9093;52.062;4.508;2023-02-12T09:58:45;104302.03;;;10.15;71.12
17936;BME280;9093;52.062;4.508;2023-02-12T10:01:26;104303.84;;;10.19;71.34
17936;BME280;9093;52.062;4.508;2023-02-12T10:04:07;104305.63;;;10.22;70.93
17936;BME280;9093;52.062;4.508;2023-02-12T10:06:57;104307.41;;;10.21;70.84
17936;BME280;9093;52.062;4.508;2023-02-12T10:09:44;104304.78;;;10.24;70.96
17936;BME280;9093;52.062;4.508;2023-02-12T10:12:50;104306.53;;;10.25;70.96
17936;BME280;9093;52.062;4.508;2023-02-12T10:16:30;104300.31;;;10.29;70.76
17936;BME280;9093;52.062;4.508;2023-02-12T10:19:25;104311.00;;;10.32;70.84
17936;BME280;9093;52.062;4.508;2023-02-12T10:21:56;104307.47;;;10.36;70.52
17936;BME280;9093;52.062;4.508;2023-02-12T10:27:54;104305.69;;;10.41;70.49
17936;BME280;9093;52.062;4.508;2023-02-12T10:30:57;104309.22;;;10.43;70.38
17936;BME280;9093;52.062;4.508;2023-02-12T10:33:43;104309.25;;;10.49;70.42
17936;BME280;9093;52.062;4.508;2023-02-12T10:36:38;104306.59;;;10.48;70.32
17936;BME280;9093;52.062;4.508;2023-02-12T10:39:23;104306.59;;;10.54;70.33
17936;BME280;9093;52.062;4.508;2023-02-12T10:42:11;104306.63;;;10.56;70.35
17936;BME280;9093;52.062;4.508;2023-02-12T10:44:54;104307.50;;;10.61;70.06
17936;BME280;9093;52.062;4.508;2023-02-12T10:47:34;104305.72;;;10.60;70.21
17936;BME280;9093;52.062;4.508;2023-02-12T10:53:25;104303.94;;;10.62;70.09
17936;BME280;9093;52.062;4.508;2023-02-12T10:58:57;104302.16;;;10.70;69.88
17936;BME280;9093;52.062;4.508;2023-02-12T11:01:46;104303.03;;;10.70;69.86
17936;BME280;9093;52.062;4.508;2023-02-12T11:04:28;104305.72;;;10.72;69.87
17936;BME280;9093;52.062;4.508;2023-02-12T11:07:09;104306.63;;;10.72;69.98
17936;BME280;9093;52.062;4.508;2023-02-12T11:09:51;104309.28;;;10.77;69.68
17936;BME280;9093;52.062;4.508;2023-02-12T11:12:34;104303.94;;;10.78;69.81
17936;BME280;9093;52.062;4.508;2023-02-12T11:15:18;104296.81;;;10.79;69.72
17936;BME280;9093;52.062;4.508;2023-02-12T11:18:02;104299.50;;;10.80;69.49
17936;BME280;9093;52.062;4.508;2023-02-12T11:20:52;104299.50;;;10.79;69.24
17936;BME280;9093;52.062;4.508;2023-02-12T11:23:35;104300.38;;;10.82;69.40
17936;BME280;9093;52.062;4.508;2023-02-12T11:31:37;104299.50;;;10.85;69.20
17936;BME280;9093;52.062;4.508;2023-02-12T11:34:20;104300.38;;;10.87;69.07
17936;BME280;9093;52.062;4.508;2023-02-12T11:37:01;104294.16;;;10.85;69.03
17936;BME280;9093;52.062;4.508;2023-02-12T11:39:46;104286.09;;;10.88;69.27
17936;BME280;9093;52.062;4.508;2023-02-12T11:42:32;104291.47;;;10.91;68.99
17936;BME280;9093;52.062;4.508;2023-02-12T11:45:19;104289.69;;;10.93;68.91
17936;BME280;9093;52.062;4.508;2023-02-12T11:48:00;104290.59;;;10.94;68.77
17936;BME280;9093;52.062;4.508;2023-02-12T11:50:49;104289.69;;;10.93;68.55
17936;BME280;9093;52.062;4.508;2023-02-12T11:53:34;104284.34;;;10.93;68.74
17936;BME280;9093;52.062;4.508;2023-02-12T11:56:16;104284.34;;;10.90;68.72
17936;BME280;9093;52.062;4.508;2023-02-12T12:02:15;104279.88;;;10.91;68.29
17936;BME280;9093;52.062;4.508;2023-02-12T12:05:05;104279.91;;;10.94;68.42
17936;BME280;9093;52.062;4.508;2023-02-12T12:07:55;104286.09;;;10.94;68.44
17936;BME280;9093;52.062;4.508;2023-02-12T12:10:44;104288.78;;;10.96;68.39
17936;BME280;9093;52.062;4.508;2023-02-12T12:13:32;104275.44;;;10.99;68.31
17936;BME280;9093;52.062;4.508;2023-02-12T12:16:28;104279.00;;;10.99;68.34
17936;BME280;9093;52.062;4.508;2023-02-12T12:22:59;104279.88;;;10.97;68.56
17936;BME280;9093;52.062;4.508;2023-02-12T12:25:51;104274.53;;;10.95;68.55
17936;BME280;9093;52.062;4.508;2023-02-12T12:28:43;104268.31;;;10.87;68.96
17936;BME280;9093;52.062;4.508;2023-02-12T12:31:28;104263.84;;;10.94;68.50
17936;BME280;9093;52.062;4.508;2023-02-12T12:34:16;104264.72;;;10.91;68.21
17936;BME280;9093;52.062;4.508;2023-02-12T12:37:31;104265.59;;;10.88;68.31
17936;BME280;9093;52.062;4.508;2023-02-12T12:43:44;104264.72;;;10.91;68.41
17936;BME280;9093;52.062;4.508;2023-02-12T13:05:23;104242.44;;;10.92;68.15
17936;BME280;9093;52.062;4.508;2023-02-12T13:11:54;104240.69;;;10.80;68.16
17936;BME280;9093;52.062;4.508;2023-02-12T13:21:03;104234.44;;;10.74;67.86
17936;BME280;9093;52.062;4.508;2023-02-12T13:26:58;104219.28;;;10.79;67.60
17936;BME280;9093;52.062;4.508;2023-02-12T13:29:43;104223.72;;;10.75;67.56
17936;BME280;9093;52.062;4.508;2023-02-12T13:32:33;104228.19;;;10.70;67.54
17936;BME280;9093;52.062;4.508;2023-02-12T13:35:21;104224.66;;;10.68;67.69
17936;BME280;9093;52.062;4.508;2023-02-12T13:38:05;104217.50;;;10.72;67.51
17936;BME280;9093;52.062;4.508;2023-02-12T13:40:48;104215.72;;;10.75;67.46
17936;BME280;9093;52.062;4.508;2023-02-12T13:49:38;104215.72;;;10.78;67.29
17936;BME280;9093;52.062;4.508;2023-02-12T13:52:48;104217.50;;;10.72;67.28
17936;BME280;9093;52.062;4.508;2023-02-12T14:01:38;104206.81;;;10.75;67.24
17936;BME280;9093;52.062;4.508;2023-02-12T14:04:43;104205.94;;;10.79;67.29
17936;BME280;9093;52.062;4.508;2023-02-12T14:07:41;104194.34;;;10.77;67.18
17936;BME280;9093;52.062;4.508;2023-02-12T14:10:35;104184.53;;;10.82;67.14
17936;BME280;9093;52.062;4.508;2023-02-12T14:13:22;104187.19;;;10.83;66.99
17936;BME280;9093;52.062;4.508;2023-02-12T14:19:35;104184.53;;;10.80;67.01
17936;BME280;9093;52.062;4.508;2023-02-12T14:37:08;104174.75;;;10.78;66.97
17936;BME280;9093;52.062;4.508;2023-02-12T14:39:50;104178.28;;;10.75;67.01
17936;BME280;9093;52.062;4.508;2023-02-12T14:42:55;104174.72;;;10.75;66.84
17936;BME280;9093;52.062;4.508;2023-02-12T14:45:36;104178.28;;;10.77;66.76
17936;BME280;9093;52.062;4.508;2023-02-12T14:52:13;104178.31;;;10.69;67.12
17936;BME280;9093;52.062;4.508;2023-02-12T14:55:23;104174.75;;;10.67;66.95
17936;BME280;9093;52.062;4.508;2023-02-12T14:58:15;104173.88;;;10.67;66.82
17936;BME280;9093;52.062;4.508;2023-02-12T15:00:59;104166.75;;;10.66;67.02
17936;BME280;9093;52.062;4.508;2023-02-12T15:03:49;104157.84;;;10.61;67.13
17936;BME280;9093;52.062;4.508;2023-02-12T15:06:40;104174.75;;;10.63;66.85
17936;BME280;9093;52.062;4.508;2023-02-12T15:09:29;104161.41;;;10.60;66.81
17936;BME280;9093;52.062;4.508;2023-02-12T15:12:21;104172.09;;;10.60;66.92
17936;BME280;9093;52.062;4.508;2023-02-12T15:15:24;104162.31;;;10.54;66.79
17936;BME280;9093;52.062;4.508;2023-02-12T15:18:16;104166.75;;;10.54;66.73
17936;BME280;9093;52.062;4.508;2023-02-12T15:23:41;104160.50;;;10.44;67.08
17936;BME280;9093;52.062;4.508;2023-02-12T15:26:23;104175.66;;;10.46;66.67
17936;BME280;9093;52.062;4.508;2023-02-12T15:29:05;104164.97;;;10.43;66.78
17936;BME280;9093;52.062;4.508;2023-02-12T15:31:57;104167.66;;;10.39;66.86
17936;BME280;9093;52.062;4.508;2023-02-12T15:34:38;104159.63;;;10.37;66.75
17936;BME280;9093;52.062;4.508;2023-02-12T15:37:26;104172.13;;;10.35;66.65
17936;BME280;9093;52.062;4.508;2023-02-12T15:40:13;104170.31;;;10.34;66.95
17936;BME280;9093;52.062;4.508;2023-02-12T15:45:36;104165.88;;;10.30;66.83
17936;BME280;9093;52.062;4.508;2023-02-12T15:48:20;104169.44;;;10.28;66.97
17936;BME280;9093;52.062;4.508;2023-02-12T15:54:04;104156.06;;;10.20;66.80
17936;BME280;9093;52.062;4.508;2023-02-12T15:56:46;104162.31;;;10.18;66.62
17936;BME280;9093;52.062;4.508;2023-02-12T15:59:27;104160.47;;;10.12;67.02
17936;BME280;9093;52.062;4.508;2023-02-12T16:02:18;104175.63;;;10.10;66.83
17936;BME280;9093;52.062;4.508;2023-02-12T16:05:01;104171.16;;;10.09;66.76
17936;BME280;9093;52.062;4.508;2023-02-12T16:07:43;104168.47;;;10.06;66.78
17936;BME280;9093;52.062;4.508;2023-02-12T16:10:25;104168.50;;;10.03;66.95
17936;BME280;9093;52.062;4.508;2023-02-12T16:13:06;104167.56;;;9.99;66.81
17936;BME280;9093;52.062;4.508;2023-02-12T16:16:03;104164.00;;;9.94;66.95
17936;BME280;9093;52.062;4.508;2023-02-12T16:18:43;104168.47;;;9.95;66.78
17936;BME280;9093;52.062;4.508;2023-02-12T16:21:29;104167.59;;;9.90;66.68
17936;BME280;9093;52.062;4.508;2023-02-12T16:24:24;104167.59;;;9.86;66.87
17936;BME280;9093;52.062;4.508;2023-02-12T16:27:14;104164.00;;;9.84;66.89
17936;BME280;9093;52.062;4.508;2023-02-12T16:29:59;104165.75;;;9.80;66.85
17936;BME280;9093;52.062;4.508;2023-02-12T16:32:42;104171.09;;;9.77;67.03
17936;BME280;9093;52.062;4.508;2023-02-12T16:35:31;104170.22;;;9.74;66.90
17936;BME280;9093;52.062;4.508;2023-02-12T16:38:47;104170.19;;;9.67;66.79
17936;BME280;9093;52.062;4.508;2023-02-12T16:41:32;104170.19;;;9.67;66.90
17936;BME280;9093;52.062;4.508;2023-02-12T16:46:58;104171.94;;;9.62;66.72
17936;BME280;9093;52.062;4.508;2023-02-12T16:49:52;104163.03;;;9.57;66.95
17936;BME280;9093;52.062;4.508;2023-02-12T16:52:39;104166.59;;;9.56;66.94
17936;BME280;9093;52.062;4.508;2023-02-12T16:55:20;104163.06;;;9.54;66.96
17936;BME280;9093;52.062;4.508;2023-02-12T16:58:00;104169.25;;;9.52;66.87